sensor_id;sensor_type;location;lat;lon;timestamp;pressure;altitude;pressure_sealevel;temperature;humidity
12664;BME280;6396;58.490;15.528;2022-08-21T00:00:12;100433.06;;;16.48;100.00
12664;BME280;6396;58.490;15.528;2022-08-21T00:02:47;100617.34;;;17.75;100.00
12664;BME280;6396;58.490;15.528;2022-08-21T00:05:14;100492.41;;;17.01;100.00
12664;BME280;6396;58.490;15.528;2022-08-21T00:07:41;100519.00;;;17.03;100.00
12664;BME280;6396;58.490;15.528;2022-08-21T00:10:09;100610.44;;;17.71;100.00
12664;BME280;6396;58.490;15.528;2022-08-21T00:12:36;100556.34;;;17.35;100.00
12664;BME280;6396;58.490;15.528;2022-08-21T00:15:05;100605.88;;;17.73;100.00
12664;BME280;6396;58.490;15.528;2022-08-21T00:17:32;100638.84;;;17.72;100.00
12664;BME280;6396;58.490;15.528;2022-08-21T00:20:00;100497.22;;;16.95;100.00
12664;BME280;6396;58.490;15.528;2022-08-21T00:22:30;100589.50;;;17.31;100.00
12664;BME280;6396;58.490;15.528;2022-08-21T00:24:57;100595.34;;;17.38;100.00
12664;BME280;6396;58.490;15.528;2022-08-21T00:27:24;100210.44;;;15.27;100.00
12664;BME280;6396;58.490;15.528;2022-08-21T00:29:50;100599.41;;;17.45;100.00
12664;BME280;6396;58.490;15.528;2022-08-21T00:32:21;100618.44;;;17.71;100.00
12664;BME280;6396;58.490;15.528;2022-08-21T00:34:48;100616.88;;;17.67;100.00
12664;BME280;6396;58.490;15.528;2022-08-21T00:37:16;100393.81;;;16.34;100.00
12664;BME280;6396;58.490;15.528;2022-08-21T00:39:43;100616.44;;;17.59;100.00
12664;BME280;6396;58.490;15.528;2022-08-21T00:42:10;100482.59;;;16.69;100.00
12664;BME280;6396;58.490;15.528;2022-08-21T00:44:40;100540.59;;;16.98;100.00
12664;BME280;6396;58.490;15.528;2022-08-21T00:47:07;100579.69;;;17.32;100.00
12664;BME280;6396;58.490;15.528;2022-08-21T00:49:35;100629.78;;;17.59;100.00
12664;BME280;6396;58.490;15.528;2022-08-21T00:52:03;100507.69;;;16.82;100.00
12664;BME280;6396;58.490;15.528;2022-08-21T00:54:33;100632.56;;;17.58;100.00
12664;BME280;6396;58.490;15.528;2022-08-21T00:57:04;100611.09;;;17.59;100.00
12664;BME280;6396;58.490;15.528;2022-08-21T00:59:36;100587.00;;;17.28;100.00
12664;BME280;6396;58.490;15.528;2022-08-21T01:02:05;100575.09;;;17.34;100.00
12664;BME280;6396;58.490;15.528;2022-08-21T01:04:32;100566.25;;;17.33;100.00
12664;BME280;6396;58.490;15.528;2022-08-21T01:06:59;100443.16;;;16.58;100.00
12664;BME280;6396;58.490;15.528;2022-08-21T01:09:26;100613.00;;;17.57;100.00
12664;BME280;6396;58.490;15.528;2022-08-21T01:11:54;100515.50;;;16.85;100.00
12664;BME280;6396;58.490;15.528;2022-08-21T01:14:21;100253.19;;;15.41;100.00
12664;BME280;6396;58.490;15.528;2022-08-21T01:16:51;100599.63;;;17.57;100.00
12664;BME280;6396;58.490;15.528;2022-08-21T01:19:20;100605.91;;;17.56;100.00
12664;BME280;6396;58.490;15.528;2022-08-21T01:21:49;100602.50;;;17.54;100.00
12664;BME280;6396;58.490;15.528;2022-08-21T01:24:15;100599.50;;;17.43;100.00
12664;BME280;6396;58.490;15.528;2022-08-21T01:26:43;100572.41;;;17.18;100.00
12664;BME280;6396;58.490;15.528;2022-08-21T01:29:14;100538.34;;;16.91;100.00
12664;BME280;6396;58.490;15.528;2022-08-21T01:31:43;100598.84;;;17.23;100.00
12664;BME280;6396;58.490;15.528;2022-08-21T01:34:10;100605.81;;;17.25;100.00
12664;BME280;6396;58.490;15.528;2022-08-21T01:36:37;100600.13;;;16.99;100.00
12664;BME280;6396;58.490;15.528;2022-08-21T01:39:05;100576.63;;;16.72;100.00
12664;BME280;6396;58.490;15.528;2022-08-21T01:41:32;100458.25;;;16.08;100.00
12664;BME280;6396;58.490;15.528;2022-08-21T01:43:59;100624.94;;;17.01;100.00
12664;BME280;6396;58.490;15.528;2022-08-21T01:46:26;100610.13;;;16.95;100.00
12664;BME280;6396;58.490;15.528;2022-08-21T01:48:53;100623.94;;;16.86;100.00
12664;BME280;6396;58.490;15.528;2022-08-21T01:51:20;100505.66;;;16.19;100.00
12664;BME280;6396;58.490;15.528;2022-08-21T01:53:47;100634.63;;;16.86;100.00
12664;BME280;6396;58.490;15.528;2022-08-21T01:56:16;100608.56;;;16.74;100.00
12664;BME280;6396;58.490;15.528;2022-08-21T01:58:45;100623.94;;;16.86;100.00
12664;BME280;6396;58.490;15.528;2022-08-21T02:01:13;100488.88;;;16.00;100.00
12664;BME280;6396;58.490;15.528;2022-08-21T02:03:41;100629.81;;;16.76;100.00
12664;BME280;6396;58.490;15.528;2022-08-21T02:06:14;100627.16;;;16.76;100.00
12664;BME280;6396;58.490;15.528;2022-08-21T02:08:43;100557.53;;;16.29;100.00
12664;BME280;6396;58.490;15.528;2022-08-21T02:11:10;100632.25;;;16.63;100.00
12664;BME280;6396;58.490;15.528;2022-08-21T02:13:38;100627.22;;;16.57;100.00
12664;BME280;6396;58.490;15.528;2022-08-21T02:16:06;100622.75;;;16.57;100.00
12664;BME280;6396;58.490;15.528;2022-08-21T02:18:33;100603.34;;;16.37;100.00
12664;BME280;6396;58.490;15.528;2022-08-21T02:21:01;100565.88;;;16.40;100.00
12664;BME280;6396;58.490;15.528;2022-08-21T02:23:28;100556.28;;;16.36;100.00
12664;BME280;6396;58.490;15.528;2022-08-21T02:25:55;100627.88;;;16.79;100.00
12664;BME280;6396;58.490;15.528;2022-08-21T02:28:22;100508.88;;;16.08;100.00
12664;BME280;6396;58.490;15.528;2022-08-21T02:30:51;100608.63;;;16.72;100.00
12664;BME280;6396;58.490;15.528;2022-08-21T02:33:18;100577.34;;;16.59;100.00
12664;BME280;6396;58.490;15.528;2022-08-21T02:35:47;100566.84;;;16.56;100.00
12664;BME280;6396;58.490;15.528;2022-08-21T02:38:16;100609.50;;;16.73;100.00
12664;BME280;6396;58.490;15.528;2022-08-21T02:40:46;100648.78;;;16.69;100.00
12664;BME280;6396;58.490;15.528;2022-08-21T02:43:13;100607.00;;;16.70;100.00
12664;BME280;6396;58.490;15.528;2022-08-21T02:45:42;100607.72;;;16.73;100.00
12664;BME280;6396;58.490;15.528;2022-08-21T02:48:13;100605.91;;;16.74;100.00
12664;BME280;6396;58.490;15.528;2022-08-21T02:50:43;100589.25;;;16.69;100.00
12664;BME280;6396;58.490;15.528;2022-08-21T02:53:11;100600.50;;;16.76;100.00
12664;BME280;6396;58.490;15.528;2022-08-21T02:55:42;100400.34;;;15.60;100.00
12664;BME280;6396;58.490;15.528;2022-08-21T02:58:09;100599.63;;;16.75;100.00
12664;BME280;6396;58.490;15.528;2022-08-21T03:00:38;100627.00;;;16.79;100.00
12664;BME280;6396;58.490;15.528;2022-08-21T03:03:06;100594.91;;;16.80;100.00
12664;BME280;6396;58.490;15.528;2022-08-21T03:05:35;100591.63;;;16.75;100.00
12664;BME280;6396;58.490;15.528;2022-08-21T03:08:05;100423.00;;;15.69;100.00
12664;BME280;6396;58.490;15.528;2022-08-21T03:10:35;100595.06;;;16.77;100.00
12664;BME280;6396;58.490;15.528;2022-08-21T03:13:02;100562.44;;;16.55;100.00
12664;BME280;6396;58.490;15.528;2022-08-21T03:15:29;100585.97;;;16.81;100.00
12664;BME280;6396;58.490;15.528;2022-08-21T03:17:56;100496.50;;;16.24;100.00
12664;BME280;6396;58.490;15.528;2022-08-21T03:20:25;100498.69;;;16.33;100.00
12664;BME280;6396;58.490;15.528;2022-08-21T03:22:54;100581.81;;;16.76;100.00
12664;BME280;6396;58.490;15.528;2022-08-21T03:25:23;100573.75;;;16.77;100.00
12664;BME280;6396;58.490;15.528;2022-08-21T03:27:51;100575.78;;;16.72;100.00
12664;BME280;6396;58.490;15.528;2022-08-21T03:30:20;100471.81;;;16.04;100.00
12664;BME280;6396;58.490;15.528;2022-08-21T03:32:47;100448.47;;;15.92;100.00
12664;BME280;6396;58.490;15.528;2022-08-21T03:35:15;100552.38;;;16.43;100.00
12664;BME280;6396;58.490;15.528;2022-08-21T03:37:42;100479.34;;;16.13;100.00
12664;BME280;6396;58.490;15.528;2022-08-21T03:40:12;100551.16;;;16.67;100.00
12664;BME280;6396;58.490;15.528;2022-08-21T03:42:39;100525.91;;;16.57;100.00
12664;BME280;6396;58.490;15.528;2022-08-21T03:45:08;100577.72;;;16.86;100.00
12664;BME280;6396;58.490;15.528;2022-08-21T03:47:35;100432.88;;;16.01;100.00
12664;BME280;6396;58.490;15.528;2022-08-21T03:50:03;100414.94;;;15.71;100.00
12664;BME280;6396;58.490;15.528;2022-08-21T03:52:30;100588.94;;;16.75;100.00
12664;BME280;6396;58.490;15.528;2022-08-21T03:54:57;100562.84;;;16.47;100.00
12664;BME280;6396;58.490;15.528;2022-08-21T03:57:26;100555.03;;;16.43;100.00
12664;BME280;6396;58.490;15.528;2022-08-21T03:59:52;100592.78;;;16.69;100.00
12664;BME280;6396;58.490;15.528;2022-08-21T04:02:20;100578.84;;;16.64;100.00
12664;BME280;6396;58.490;15.528;2022-08-21T04:04:48;100598.91;;;16.71;100.00
12664;BME280;6396;58.490;15.528;2022-08-21T04:07:15;100597.97;;;16.72;100.00
12664;BME280;6396;58.490;15.528;2022-08-21T04:09:42;100580.25;;;16.54;100.00
12664;BME280;6396;58.490;15.528;2022-08-21T04:12:09;100597.81;;;16.58;100.00
12664;BME280;6396;58.490;15.528;2022-08-21T04:14:37;100603.06;;;16.77;100.00
12664;BME280;6396;58.490;15.528;2022-08-21T04:17:04;100500.34;;;16.19;100.00
12664;BME280;6396;58.490;15.528;2022-08-21T04:19:32;100465.00;;;15.98;100.00
12664;BME280;6396;58.490;15.528;2022-08-21T04:21:59;100601.03;;;16.82;100.00
12664;BME280;6396;58.490;15.528;2022-08-21T04:24:25;100621.34;;;16.85;100.00
12664;BME280;6396;58.490;15.528;2022-08-21T04:26:52;100607.25;;;16.83;100.00
12664;BME280;6396;58.490;15.528;2022-08-21T04:29:19;100605.50;;;16.82;100.00
12664;BME280;6396;58.490;15.528;2022-08-21T04:31:47;100578.84;;;16.64;100.00
12664;BME280;6396;58.490;15.528;2022-08-21T04:34:14;100614.81;;;16.90;100.00
12664;BME280;6396;58.490;15.528;2022-08-21T04:36:41;100612.09;;;16.92;100.00
12664;BME280;6396;58.490;15.528;2022-08-21T04:39:08;100477.53;;;16.13;100.00
12664;BME280;6396;58.490;15.528;2022-08-21T04:41:34;100594.53;;;16.70;100.00
12664;BME280;6396;58.490;15.528;2022-08-21T04:44:03;100361.22;;;15.27;100.00
12664;BME280;6396;58.490;15.528;2022-08-21T04:46:30;100536.53;;;16.40;100.00
12664;BME280;6396;58.490;15.528;2022-08-21T04:48:58;100576.09;;;16.66;100.00
12664;BME280;6396;58.490;15.528;2022-08-21T04:51:29;100412.88;;;15.58;100.00
12664;BME280;6396;58.490;15.528;2022-08-21T04:54:00;100501.81;;;16.24;100.00
12664;BME280;6396;58.490;15.528;2022-08-21T04:56:30;100615.06;;;16.86;100.00
12664;BME280;6396;58.490;15.528;2022-08-21T04:59:01;100614.06;;;16.88;100.00
12664;BME280;6396;58.490;15.528;2022-08-21T05:01:30;100462.88;;;15.88;100.00
12664;BME280;6396;58.490;15.528;2022-08-21T05:04:02;100547.28;;;16.38;100.00
12664;BME280;6396;58.490;15.528;2022-08-21T05:06:33;100408.97;;;15.66;100.00
12664;BME280;6396;58.490;15.528;2022-08-21T05:09:03;100504.66;;;16.21;100.00
12664;BME280;6396;58.490;15.528;2022-08-21T05:11:30;100615.94;;;16.86;100.00
12664;BME280;6396;58.490;15.528;2022-08-21T05:13:58;100627.94;;;16.95;100.00
12664;BME280;6396;58.490;15.528;2022-08-21T05:16:24;100597.66;;;16.61;100.00
12664;BME280;6396;58.490;15.528;2022-08-21T05:18:51;100163.66;;;14.01;100.00
12664;BME280;6396;58.490;15.528;2022-08-21T05:21:20;100561.09;;;16.46;100.00
12664;BME280;6396;58.490;15.528;2022-08-21T05:23:47;100619.78;;;16.81;100.00
12664;BME280;6396;58.490;15.528;2022-08-21T05:26:14;100587.69;;;16.82;100.00
12664;BME280;6396;58.490;15.528;2022-08-21T05:28:40;100324.91;;;15.26;100.00
12664;BME280;6396;58.490;15.528;2022-08-21T05:31:07;100430.53;;;15.95;100.00
12664;BME280;6396;58.490;15.528;2022-08-21T05:33:34;100623.28;;;17.15;100.00
12664;BME280;6396;58.490;15.528;2022-08-21T05:36:01;100498.69;;;16.33;100.00
12664;BME280;6396;58.490;15.528;2022-08-21T05:38:29;100643.97;;;17.27;100.00
12664;BME280;6396;58.490;15.528;2022-08-21T05:40:56;100629.53;;;17.31;100.00
12664;BME280;6396;58.490;15.528;2022-08-21T05:43:23;100630.31;;;17.33;100.00
12664;BME280;6396;58.490;15.528;2022-08-21T05:45:49;100622.22;;;17.35;100.00
12664;BME280;6396;58.490;15.528;2022-08-21T05:48:18;100622.44;;;17.30;100.00
12664;BME280;6396;58.490;15.528;2022-08-21T05:50:47;100629.19;;;17.37;100.00
12664;BME280;6396;58.490;15.528;2022-08-21T05:53:16;100626.19;;;17.43;100.00
12664;BME280;6396;58.490;15.528;2022-08-21T05:55:46;100629.59;;;17.47;100.00
12664;BME280;6396;58.490;15.528;2022-08-21T05:58:14;100624.78;;;17.53;100.00
12664;BME280;6396;58.490;15.528;2022-08-21T06:00:42;100638.31;;;17.50;100.00
12664;BME280;6396;58.490;15.528;2022-08-21T06:03:13;100482.75;;;16.66;100.00
12664;BME280;6396;58.490;15.528;2022-08-21T06:05:40;100572.66;;;17.14;100.00
12664;BME280;6396;58.490;15.528;2022-08-21T06:08:07;100634.44;;;17.56;100.00
12664;BME280;6396;58.490;15.528;2022-08-21T06:10:34;100638.41;;;17.64;100.00
12664;BME280;6396;58.490;15.528;2022-08-21T06:13:03;100531.31;;;17.05;100.00
12664;BME280;6396;58.490;15.528;2022-08-21T06:15:30;100631.41;;;17.46;100.00
12664;BME280;6396;58.490;15.528;2022-08-21T06:17:57;100634.28;;;17.74;100.00
12664;BME280;6396;58.490;15.528;2022-08-21T06:20:24;100516.13;;;16.90;100.00
12664;BME280;6396;58.490;15.528;2022-08-21T06:22:51;100639.03;;;17.85;100.00
12664;BME280;6396;58.490;15.528;2022-08-21T06:25:18;100687.91;;;17.87;100.00
12664;BME280;6396;58.490;15.528;2022-08-21T06:27:45;100527.63;;;17.23;100.00
12664;BME280;6396;58.490;15.528;2022-08-21T06:30:13;100578.78;;;17.64;100.00
12664;BME280;6396;58.490;15.528;2022-08-21T06:32:40;100602.22;;;17.74;100.00
12664;BME280;6396;58.490;15.528;2022-08-21T06:35:09;100621.63;;;17.94;100.00
12664;BME280;6396;58.490;15.528;2022-08-21T06:37:36;100570.81;;;17.31;100.00
12664;BME280;6396;58.490;15.528;2022-08-21T06:40:04;100646.97;;;18.18;100.00
12664;BME280;6396;58.490;15.528;2022-08-21T06:42:31;100617.75;;;17.99;100.00
12664;BME280;6396;58.490;15.528;2022-08-21T06:44:58;100629.47;;;18.28;100.00
12664;BME280;6396;58.490;15.528;2022-08-21T06:47:26;100416.00;;;17.00;100.00
12664;BME280;6396;58.490;15.528;2022-08-21T06:49:53;100497.81;;;17.48;100.00
12664;BME280;6396;58.490;15.528;2022-08-21T06:52:20;100464.97;;;17.30;100.00
12664;BME280;6396;58.490;15.528;2022-08-21T06:54:46;100586.38;;;18.03;100.00
12664;BME280;6396;58.490;15.528;2022-08-21T06:57:13;100484.09;;;17.38;100.00
12664;BME280;6396;58.490;15.528;2022-08-21T06:59:42;100563.59;;;18.11;100.00
12664;BME280;6396;58.490;15.528;2022-08-21T07:02:10;100629.09;;;18.49;100.00
12664;BME280;6396;58.490;15.528;2022-08-21T07:04:39;100473.16;;;17.58;100.00
12664;BME280;6396;58.490;15.528;2022-08-21T07:07:05;100605.19;;;18.62;100.00
12664;BME280;6396;58.490;15.528;2022-08-21T07:09:32;100608.34;;;18.68;100.00
12664;BME280;6396;58.490;15.528;2022-08-21T07:11:59;100458.59;;;17.79;100.00
12664;BME280;6396;58.490;15.528;2022-08-21T07:14:26;100444.44;;;17.77;100.00
12664;BME280;6396;58.490;15.528;2022-08-21T07:16:53;100627.59;;;18.75;100.00
12664;BME280;6396;58.490;15.528;2022-08-21T07:19:20;100617.47;;;18.80;100.00
12664;BME280;6396;58.490;15.528;2022-08-21T07:21:48;100314.25;;;17.06;100.00
12664;BME280;6396;58.490;15.528;2022-08-21T07:24:15;100573.94;;;18.62;100.00
12664;BME280;6396;58.490;15.528;2022-08-21T07:26:42;100610.91;;;19.00;100.00
12664;BME280;6396;58.490;15.528;2022-08-21T07:29:09;100491.28;;;18.44;100.00
12664;BME280;6396;58.490;15.528;2022-08-21T07:31:36;100608.75;;;19.20;100.00
12664;BME280;6396;58.490;15.528;2022-08-21T07:34:02;100588.28;;;19.47;100.00
12664;BME280;6396;58.490;15.528;2022-08-21T07:36:29;100400.94;;;18.77;100.00
12664;BME280;6396;58.490;15.528;2022-08-21T07:38:57;100595.97;;;20.35;100.00
12664;BME280;6396;58.490;15.528;2022-08-21T07:41:27;100559.19;;;20.37;100.00
12664;BME280;6396;58.490;15.528;2022-08-21T07:43:54;100599.25;;;21.29;100.00
12664;BME280;6396;58.490;15.528;2022-08-21T07:46:23;100525.03;;;21.28;100.00
12664;BME280;6396;58.490;15.528;2022-08-21T07:48:50;100444.09;;;21.33;100.00
12664;BME280;6396;58.490;15.528;2022-08-21T07:51:19;100598.75;;;22.58;100.00
12664;BME280;6396;58.490;15.528;2022-08-21T07:53:48;100548.13;;;22.15;100.00
12664;BME280;6396;58.490;15.528;2022-08-21T07:56:17;100597.19;;;22.66;100.00
12664;BME280;6396;58.490;15.528;2022-08-21T07:58:44;100553.22;;;22.66;100.00
12664;BME280;6396;58.490;15.528;2022-08-21T08:01:11;100620.88;;;23.97;100.00
12664;BME280;6396;58.490;15.528;2022-08-21T08:03:38;100562.88;;;24.45;100.00
12664;BME280;6396;58.490;15.528;2022-08-21T08:06:06;100578.31;;;24.86;100.00
12664;BME280;6396;58.490;15.528;2022-08-21T08:08:37;100428.72;;;24.46;100.00
12664;BME280;6396;58.490;15.528;2022-08-21T08:11:04;100622.00;;;25.92;100.00
12664;BME280;6396;58.490;15.528;2022-08-21T08:13:38;100584.94;;;26.42;100.00
12664;BME280;6396;58.490;15.528;2022-08-21T08:16:05;100548.03;;;26.41;100.00
12664;BME280;6396;58.490;15.528;2022-08-21T08:18:32;100396.66;;;25.90;100.00
12664;BME280;6396;58.490;15.528;2022-08-21T08:20:59;100579.09;;;27.60;100.00
12664;BME280;6396;58.490;15.528;2022-08-21T08:23:26;100566.38;;;27.60;100.00
12664;BME280;6396;58.490;15.528;2022-08-21T08:25:52;100536.00;;;28.01;94.47
12664;BME280;6396;58.490;15.528;2022-08-21T08:28:19;100461.44;;;27.51;83.20
12664;BME280;6396;58.490;15.528;2022-08-21T08:30:48;100486.28;;;27.74;66.66
12664;BME280;6396;58.490;15.528;2022-08-21T08:33:16;100574.28;;;28.70;80.67
12664;BME280;6396;58.490;15.528;2022-08-21T08:35:45;100598.63;;;28.97;75.79
12664;BME280;6396;58.490;15.528;2022-08-21T08:38:13;100520.94;;;28.95;71.92
12664;BME280;6396;58.490;15.528;2022-08-21T08:40:47;100307.19;;;27.82;68.05
12664;BME280;6396;58.490;15.528;2022-08-21T08:43:18;100387.03;;;28.06;67.19
12664;BME280;6396;58.490;15.528;2022-08-21T08:45:49;100428.03;;;27.95;58.76
12664;BME280;6396;58.490;15.528;2022-08-21T08:48:34;100533.25;;;28.11;56.68
12664;BME280;6396;58.490;15.528;2022-08-21T08:51:08;100572.69;;;28.68;64.16
12664;BME280;6396;58.490;15.528;2022-08-21T08:53:57;100561.50;;;28.88;58.86
12664;BME280;6396;58.490;15.528;2022-08-21T08:56:29;100555.31;;;29.21;61.46
12664;BME280;6396;58.490;15.528;2022-08-21T08:59:00;100379.84;;;28.66;55.50
12664;BME280;6396;58.490;15.528;2022-08-21T09:01:29;100353.09;;;28.53;58.35
12664;BME280;6396;58.490;15.528;2022-08-21T09:03:56;100320.66;;;28.52;55.16
12664;BME280;6396;58.490;15.528;2022-08-21T09:06:37;100561.47;;;29.99;50.76
12664;BME280;6396;58.490;15.528;2022-08-21T09:09:28;100494.97;;;29.34;49.97
12664;BME280;6396;58.490;15.528;2022-08-21T09:12:00;100231.50;;;27.96;52.83
12664;BME280;6396;58.490;15.528;2022-08-21T09:14:41;100544.75;;;29.78;47.06
12664;BME280;6396;58.490;15.528;2022-08-21T09:17:23;100531.78;;;29.80;45.23
12664;BME280;6396;58.490;15.528;2022-08-21T09:20:03;100542.66;;;29.72;43.80
12664;BME280;6396;58.490;15.528;2022-08-21T09:22:40;100536.38;;;29.71;47.85
12664;BME280;6396;58.490;15.528;2022-08-21T09:25:15;100295.69;;;28.31;47.88
12664;BME280;6396;58.490;15.528;2022-08-21T09:27:45;100410.28;;;28.95;49.56
12664;BME280;6396;58.490;15.528;2022-08-21T09:30:12;100515.94;;;29.41;48.96
12664;BME280;6396;58.490;15.528;2022-08-21T09:32:41;100256.88;;;27.44;47.94
12664;BME280;6396;58.490;15.528;2022-08-21T09:35:11;100529.81;;;29.56;45.77
12664;BME280;6396;58.490;15.528;2022-08-21T09:37:48;100464.63;;;29.13;45.03
12664;BME280;6396;58.490;15.528;2022-08-21T09:40:21;100200.63;;;27.54;44.60
12664;BME280;6396;58.490;15.528;2022-08-21T09:42:54;100503.81;;;29.02;41.21
12664;BME280;6396;58.490;15.528;2022-08-21T09:45:21;100505.28;;;29.14;45.06
12664;BME280;6396;58.490;15.528;2022-08-21T09:47:50;100512.94;;;29.19;45.21
12664;BME280;6396;58.490;15.528;2022-08-21T09:50:21;100522.09;;;29.43;42.69
12664;BME280;6396;58.490;15.528;2022-08-21T09:52:50;100524.47;;;29.46;44.43
12664;BME280;6396;58.490;15.528;2022-08-21T09:55:28;100516.03;;;29.57;42.77
12664;BME280;6396;58.490;15.528;2022-08-21T09:58:14;100429.56;;;29.10;41.09
12664;BME280;6396;58.490;15.528;2022-08-21T10:00:42;100479.06;;;29.47;43.11
12664;BME280;6396;58.490;15.528;2022-08-21T10:03:13;100487.41;;;29.45;37.93
12664;BME280;6396;58.490;15.528;2022-08-21T10:05:51;100429.84;;;28.99;41.82
12664;BME280;6396;58.490;15.528;2022-08-21T10:08:18;100497.50;;;29.61;42.82
12664;BME280;6396;58.490;15.528;2022-08-21T10:10:50;100522.09;;;29.77;41.33
12664;BME280;6396;58.490;15.528;2022-08-21T10:13:21;100529.28;;;29.52;37.90
12664;BME280;6396;58.490;15.528;2022-08-21T10:15:56;100353.19;;;28.18;37.79
12664;BME280;6396;58.490;15.528;2022-08-21T10:18:34;100525.84;;;29.17;39.12
12664;BME280;6396;58.490;15.528;2022-08-21T10:21:05;100527.53;;;29.43;39.95
12664;BME280;6396;58.490;15.528;2022-08-21T10:23:41;100522.44;;;29.40;40.80
12664;BME280;6396;58.490;15.528;2022-08-21T10:26:18;100471.16;;;29.28;37.65
12664;BME280;6396;58.490;15.528;2022-08-21T10:28:51;100522.69;;;29.63;39.05
12664;BME280;6396;58.490;15.528;2022-08-21T10:31:29;100419.00;;;29.07;38.76
12664;BME280;6396;58.490;15.528;2022-08-21T10:34:10;100159.69;;;27.22;34.74
12664;BME280;6396;58.490;15.528;2022-08-21T10:36:49;100512.41;;;28.90;38.60
12664;BME280;6396;58.490;15.528;2022-08-21T10:39:22;100427.47;;;28.27;40.22
12664;BME280;6396;58.490;15.528;2022-08-21T10:42:12;100511.66;;;28.80;40.09
12664;BME280;6396;58.490;15.528;2022-08-21T10:44:51;100489.50;;;28.75;36.85
12664;BME280;6396;58.490;15.528;2022-08-21T10:47:28;100510.72;;;29.14;38.80
12664;BME280;6396;58.490;15.528;2022-08-21T10:50:10;100356.41;;;27.96;37.94
12664;BME280;6396;58.490;15.528;2022-08-21T10:52:53;100530.94;;;28.51;35.70
12664;BME280;6396;58.490;15.528;2022-08-21T10:55:25;100389.06;;;27.69;38.53
12664;BME280;6396;58.490;15.528;2022-08-21T10:57:57;100392.47;;;27.54;39.36
12664;BME280;6396;58.490;15.528;2022-08-21T11:00:30;100511.91;;;28.33;36.70
12664;BME280;6396;58.490;15.528;2022-08-21T11:03:05;100450.44;;;28.15;39.56
12664;BME280;6396;58.490;15.528;2022-08-21T11:05:38;100452.06;;;28.25;40.04
12664;BME280;6396;58.490;15.528;2022-08-21T11:08:11;100413.97;;;28.00;40.06
12664;BME280;6396;58.490;15.528;2022-08-21T11:10:42;100511.94;;;28.77;41.03
12664;BME280;6396;58.490;15.528;2022-08-21T11:13:15;100451.75;;;28.28;40.78
12664;BME280;6396;58.490;15.528;2022-08-21T11:15:50;100433.59;;;28.29;40.09
12664;BME280;6396;58.490;15.528;2022-08-21T11:18:26;100408.31;;;28.11;39.40
12664;BME280;6396;58.490;15.528;2022-08-21T11:21:02;100505.75;;;28.67;39.63
12664;BME280;6396;58.490;15.528;2022-08-21T11:23:38;100521.47;;;28.73;40.05
12664;BME280;6396;58.490;15.528;2022-08-21T11:26:10;100502.63;;;28.79;40.34
12664;BME280;6396;58.490;15.528;2022-08-21T11:28:45;100326.53;;;27.61;40.80
12664;BME280;6396;58.490;15.528;2022-08-21T11:31:32;100430.41;;;28.16;41.24
12664;BME280;6396;58.490;15.528;2022-08-21T11:34:15;100509.19;;;28.69;40.67
12664;BME280;6396;58.490;15.528;2022-08-21T11:36:56;100327.19;;;27.28;40.94
12664;BME280;6396;58.490;15.528;2022-08-21T11:39:35;100334.88;;;27.85;39.22
12664;BME280;6396;58.490;15.528;2022-08-21T11:42:15;100235.59;;;27.04;40.31
12664;BME280;6396;58.490;15.528;2022-08-21T11:44:50;100468.50;;;28.06;37.00
12664;BME280;6396;58.490;15.528;2022-08-21T11:47:32;100495.00;;;28.22;40.77
12664;BME280;6396;58.490;15.528;2022-08-21T11:50:09;100398.22;;;27.14;40.24
12664;BME280;6396;58.490;15.528;2022-08-21T11:52:42;100120.72;;;25.62;37.77
12664;BME280;6396;58.490;15.528;2022-08-21T11:55:14;100465.06;;;27.69;41.22
12664;BME280;6396;58.490;15.528;2022-08-21T11:57:49;100488.16;;;27.73;41.01
12664;BME280;6396;58.490;15.528;2022-08-21T12:00:20;100304.63;;;26.56;41.76
12664;BME280;6396;58.490;15.528;2022-08-21T12:02:51;100510.69;;;27.83;40.58
12664;BME280;6396;58.490;15.528;2022-08-21T12:05:27;100422.97;;;27.01;41.58
12664;BME280;6396;58.490;15.528;2022-08-21T12:08:04;100425.91;;;26.81;40.76
12664;BME280;6396;58.490;15.528;2022-08-21T12:10:34;100506.66;;;27.23;41.55
12664;BME280;6396;58.490;15.528;2022-08-21T12:13:11;100516.16;;;27.00;40.72
12664;BME280;6396;58.490;15.528;2022-08-21T12:15:47;100508.03;;;26.91;40.79
12664;BME280;6396;58.490;15.528;2022-08-21T12:18:28;100453.06;;;26.52;41.66
12664;BME280;6396;58.490;15.528;2022-08-21T12:21:02;100507.63;;;26.86;42.36
12664;BME280;6396;58.490;15.528;2022-08-21T12:23:32;100441.66;;;26.29;43.02
12664;BME280;6396;58.490;15.528;2022-08-21T12:26:19;100523.31;;;26.82;42.38
12664;BME280;6396;58.490;15.528;2022-08-21T12:28:49;100511.63;;;26.91;42.48
12664;BME280;6396;58.490;15.528;2022-08-21T12:31:21;100515.75;;;26.95;42.79
12664;BME280;6396;58.490;15.528;2022-08-21T12:33:54;100150.81;;;24.73;42.79
12664;BME280;6396;58.490;15.528;2022-08-21T12:36:24;100218.50;;;24.81;42.20
12664;BME280;6396;58.490;15.528;2022-08-21T12:38:56;100518.25;;;26.70;41.34
12664;BME280;6396;58.490;15.528;2022-08-21T12:41:27;100508.50;;;26.58;42.78
12664;BME280;6396;58.490;15.528;2022-08-21T12:43:59;100549.28;;;26.56;43.09
12664;BME280;6396;58.490;15.528;2022-08-21T12:46:31;100488.69;;;26.48;42.75
12664;BME280;6396;58.490;15.528;2022-08-21T12:49:06;100491.56;;;26.56;43.62
12664;BME280;6396;58.490;15.528;2022-08-21T12:51:42;100450.66;;;26.30;43.75
12664;BME280;6396;58.490;15.528;2022-08-21T12:54:22;100445.06;;;25.93;44.19
12664;BME280;6396;58.490;15.528;2022-08-21T12:56:56;100511.25;;;26.10;43.68